createdAt,value
2017-09-06T00:00:24.240Z,18.63
2017-09-06T00:01:33.134Z,18.55
2017-09-06T00:02:41.961Z,18.66
2017-09-06T00:03:50.798Z,18.6
2017-09-06T00:04:59.627Z,18.6
2017-09-06T00:06:08.464Z,18.58
2017-09-06T00:07:17.292Z,18.57
2017-09-06T00:08:26.122Z,18.55
2017-09-06T00:09:34.951Z,18.54
2017-09-06T00:10:43.789Z,18.48
2017-09-06T00:11:52.621Z,18.54
2017-09-06T00:13:01.452Z,18.51
2017-09-06T00:14:10.286Z,18.45
2017-09-06T00:15:19.115Z,18.48
2017-09-06T00:16:27.943Z,18.5
2017-09-06T00:17:36.781Z,18.52
2017-09-06T00:18:45.612Z,18.5
2017-09-06T00:19:54.443Z,18.55
2017-09-06T00:21:03.272Z,18.48
2017-09-06T00:22:12.101Z,18.44
2017-09-06T00:23:20.935Z,18.48
2017-09-06T00:24:29.767Z,18.32
2017-09-06T00:25:38.601Z,18.45
2017-09-06T00:26:47.435Z,18.33
2017-09-06T00:27:56.266Z,18.42
2017-09-06T00:29:05.096Z,18.45
2017-09-06T00:30:13.928Z,18.45
2017-09-06T00:31:22.760Z,18.39
2017-09-06T00:32:31.589Z,18.45
2017-09-06T00:33:40.425Z,18.39
2017-09-06T00:34:49.257Z,18.41
2017-09-06T00:35:58.090Z,18.37
2017-09-06T00:37:06.915Z,18.39
2017-09-06T00:38:15.749Z,18.5
2017-09-06T00:39:24.584Z,18.44
2017-09-06T00:40:33.733Z,18.47
2017-09-06T00:41:42.562Z,18.48
2017-09-06T00:42:51.400Z,18.42
2017-09-06T00:44:00.229Z,18.35
2017-09-06T00:45:09.063Z,18.41
2017-09-06T00:46:17.891Z,18.32
2017-09-06T00:47:26.725Z,18.37
2017-09-06T00:48:35.556Z,18.39
2017-09-06T00:49:44.388Z,18.35
2017-09-06T00:50:53.217Z,18.33
2017-09-06T00:52:02.049Z,18.33
2017-09-06T00:53:10.881Z,18.26
2017-09-06T00:54:19.710Z,18.27
2017-09-06T00:55:28.540Z,18.3
2017-09-06T00:56:37.374Z,18.26
2017-09-06T00:57:46.204Z,18.32
2017-09-06T00:58:55.036Z,18.25
2017-09-06T01:00:03.876Z,18.26
2017-09-06T01:01:12.701Z,18.25
2017-09-06T01:02:21.529Z,18.21
2017-09-06T01:03:30.364Z,18.32
2017-09-06T01:04:39.189Z,18.27
2017-09-06T01:05:48.028Z,18.27
2017-09-06T01:06:56.858Z,18.25
2017-09-06T01:08:05.687Z,18.21
2017-09-06T01:09:14.519Z,18.17
2017-09-06T01:10:23.352Z,18.14
2017-09-06T01:11:32.179Z,18.15
2017-09-06T01:12:41.014Z,18.21
2017-09-06T01:13:49.844Z,18.1
2017-09-06T01:14:58.669Z,18.17
2017-09-06T01:16:07.503Z,18.14
2017-09-06T01:17:16.332Z,18.23
2017-09-06T01:18:25.169Z,18.23
2017-09-06T01:19:33.996Z,18.1
2017-09-06T01:20:42.826Z,18.15
2017-09-06T01:21:51.659Z,18.21
2017-09-06T01:23:00.492Z,18.21
2017-09-06T01:24:09.326Z,18.14
2017-09-06T01:25:18.159Z,18.14
2017-09-06T01:26:26.990Z,18.14
2017-09-06T01:27:35.814Z,18.17
2017-09-06T01:28:44.651Z,18.21
2017-09-06T01:29:53.480Z,18.14
2017-09-06T01:31:02.310Z,18.08
2017-09-06T01:32:11.140Z,18.14
2017-09-06T01:33:19.972Z,18.11
2017-09-06T01:34:28.806Z,18.07
2017-09-06T01:35:37.633Z,18.11
2017-09-06T01:36:46.468Z,18.14
2017-09-06T01:37:55.299Z,18.07
2017-09-06T01:39:04.124Z,18.07
2017-09-06T01:40:12.955Z,18.07
2017-09-06T01:41:21.786Z,18.1
2017-09-06T01:42:30.621Z,18.08
2017-09-06T01:43:39.448Z,18.12
2017-09-06T01:44:48.280Z,18.08
2017-09-06T01:45:57.109Z,18.15
2017-09-06T01:47:05.943Z,18.1
2017-09-06T01:48:14.774Z,18.1
2017-09-06T01:49:23.604Z,18.1
2017-09-06T01:50:32.438Z,18.1
2017-09-06T01:51:41.591Z,18.12
2017-09-06T01:52:50.425Z,18.11
2017-09-06T01:53:59.256Z,18.14
2017-09-06T01:55:08.083Z,18.12
2017-09-06T01:56:16.915Z,18.11
2017-09-06T01:57:25.743Z,18.14
2017-09-06T01:58:34.572Z,18.17
2017-09-06T01:59:43.403Z,18.12
2017-09-06T02:00:52.233Z,18.17
2017-09-06T02:02:01.067Z,18.12
2017-09-06T02:03:09.896Z,18.14
2017-09-06T02:04:18.731Z,18.11
2017-09-06T02:05:27.557Z,18.11
2017-09-06T02:06:36.388Z,18.15
2017-09-06T02:07:45.217Z,18.1
2017-09-06T02:08:54.046Z,18.05
2017-09-06T02:10:02.882Z,18.07
2017-09-06T02:11:11.711Z,18.07
2017-09-06T02:12:20.545Z,18.05
2017-09-06T02:13:29.373Z,18.1
2017-09-06T02:14:38.203Z,18.1
2017-09-06T02:15:47.030Z,18.05
2017-09-06T02:16:55.860Z,18.08
2017-09-06T02:18:04.694Z,18.05
2017-09-06T02:19:13.526Z,18.1
2017-09-06T02:20:22.350Z,18.03
2017-09-06T02:21:31.181Z,18.02
2017-09-06T02:22:40.008Z,17.96
2017-09-06T02:23:48.840Z,17.99
2017-09-06T02:24:57.668Z,18
2017-09-06T02:26:06.499Z,17.97
2017-09-06T02:27:15.327Z,18.02
2017-09-06T02:28:24.161Z,18
2017-09-06T02:29:32.994Z,18
2017-09-06T02:30:41.825Z,17.92
2017-09-06T02:31:50.658Z,17.99
2017-09-06T02:32:59.487Z,18.03
2017-09-06T02:34:08.317Z,18.07
2017-09-06T02:35:17.149Z,18
2017-09-06T02:36:25.985Z,17.99
2017-09-06T02:37:34.816Z,17.99
2017-09-06T02:38:43.651Z,17.97
2017-09-06T02:39:52.481Z,18.05
2017-09-06T02:41:01.640Z,18.02
2017-09-06T02:42:10.472Z,18
2017-09-06T02:43:19.308Z,17.99
2017-09-06T02:44:28.133Z,18.03
2017-09-06T02:45:36.959Z,17.99
2017-09-06T02:46:45.793Z,18.07
2017-09-06T02:47:54.651Z,18.02
2017-09-06T02:49:03.450Z,18.02
2017-09-06T02:50:12.286Z,18.03
2017-09-06T02:51:21.117Z,18.07
2017-09-06T02:52:29.941Z,18.07
2017-09-06T02:53:38.773Z,18.1
2017-09-06T02:54:47.601Z,18.03
2017-09-06T02:55:56.436Z,18.02
2017-09-06T02:57:05.267Z,18.07
2017-09-06T02:58:14.093Z,18.07
2017-09-06T02:59:22.926Z,18.03
2017-09-06T03:00:31.757Z,18.07
2017-09-06T03:01:40.586Z,18.1
2017-09-06T03:02:49.418Z,18.1
2017-09-06T03:03:58.259Z,18.08
2017-09-06T03:05:07.407Z,18.12
2017-09-06T03:06:16.239Z,18.11
2017-09-06T03:07:25.673Z,18.11
2017-09-06T03:08:34.519Z,18.1
2017-09-06T03:09:43.375Z,18.1
2017-09-06T03:10:52.225Z,18.11
2017-09-06T03:12:01.076Z,18.11
2017-09-06T03:13:09.934Z,18.14
2017-09-06T03:14:18.781Z,18.12
2017-09-06T03:15:27.631Z,18.11
2017-09-06T03:16:36.848Z,18.17
2017-09-06T03:17:45.696Z,18.14
2017-09-06T03:18:54.546Z,18.14
2017-09-06T03:20:03.397Z,18.11
2017-09-06T03:21:12.246Z,18.12
2017-09-06T03:22:21.095Z,18.17
2017-09-06T03:23:29.946Z,18.11
2017-09-06T03:24:38.798Z,18.07
2017-09-06T03:25:47.645Z,18.15
2017-09-06T03:26:56.497Z,18.1
2017-09-06T03:28:05.345Z,18.17
2017-09-06T03:29:14.194Z,18.1
2017-09-06T03:30:23.045Z,18.07
2017-09-06T03:31:31.893Z,18.07
2017-09-06T03:32:40.747Z,18.08
2017-09-06T03:33:49.596Z,18.08
2017-09-06T03:34:58.444Z,18.11
2017-09-06T03:36:07.291Z,18.08
2017-09-06T03:37:16.143Z,18.11
2017-09-06T03:38:24.991Z,18.12
2017-09-06T03:39:33.841Z,18.1
2017-09-06T03:40:42.693Z,18.14
2017-09-06T03:41:51.540Z,18.15
2017-09-06T03:43:00.391Z,18.12
2017-09-06T03:44:09.243Z,18.1
2017-09-06T03:45:18.093Z,18.1
2017-09-06T03:46:26.942Z,18.14
2017-09-06T03:47:35.794Z,18.12
2017-09-06T03:48:44.640Z,18.11
2017-09-06T03:49:53.488Z,18.11
2017-09-06T03:51:02.342Z,18.12
2017-09-06T03:52:11.190Z,18.12
2017-09-06T03:53:20.042Z,18.11
2017-09-06T03:54:28.894Z,18.1
2017-09-06T03:55:37.741Z,18.07
2017-09-06T03:56:46.589Z,18.11
2017-09-06T03:57:55.440Z,18.07
2017-09-06T03:59:04.291Z,18.11
2017-09-06T04:00:13.139Z,18.05
2017-09-06T04:01:21.989Z,18.07
2017-09-06T04:02:30.841Z,18.11
2017-09-06T04:03:39.695Z,18.03
2017-09-06T04:04:48.542Z,18.12
2017-09-06T04:05:57.391Z,18.11
2017-09-06T04:07:06.239Z,18.03
2017-09-06T04:08:15.091Z,18.03
2017-09-06T04:09:23.939Z,18.11
2017-09-06T04:10:32.786Z,18.07
2017-09-06T04:11:41.636Z,18.12
2017-09-06T04:12:50.489Z,18.11
2017-09-06T04:13:59.336Z,18.1
2017-09-06T04:15:08.186Z,18.1
2017-09-06T04:16:17.034Z,18.15
2017-09-06T04:17:25.886Z,18.11
2017-09-06T04:18:34.738Z,18.12
2017-09-06T04:19:43.587Z,18.05
2017-09-06T04:20:52.435Z,18.12
2017-09-06T04:22:01.286Z,18.12
2017-09-06T04:23:10.136Z,18.11
2017-09-06T04:24:18.983Z,18.1
2017-09-06T04:25:27.834Z,18.08
2017-09-06T04:26:36.684Z,18.17
2017-09-06T04:27:45.534Z,18.14
2017-09-06T04:28:54.388Z,18.14
2017-09-06T04:30:03.237Z,18.12
2017-09-06T04:31:12.086Z,18.11
2017-09-06T04:32:20.940Z,18.05
2017-09-06T04:33:29.794Z,18.17
2017-09-06T04:34:38.646Z,18.14
2017-09-06T04:35:47.494Z,18.12
2017-09-06T04:36:56.345Z,18.23
2017-09-06T04:38:05.192Z,18.11
2017-09-06T04:39:14.044Z,18.11
2017-09-06T04:40:22.897Z,18.14
2017-09-06T04:41:31.757Z,18.14
2017-09-06T04:42:40.594Z,18.15
2017-09-06T04:43:49.443Z,18.1
2017-09-06T04:44:58.292Z,18.14
2017-09-06T04:46:07.140Z,18.15
2017-09-06T04:47:15.991Z,18.14
2017-09-06T04:48:24.839Z,18.15
2017-09-06T04:49:34.015Z,18.11
2017-09-06T04:50:42.866Z,18.14
2017-09-06T04:51:51.713Z,18.11
2017-09-06T04:53:00.565Z,18.12
2017-09-06T04:54:09.422Z,18.15
2017-09-06T04:55:18.267Z,18.11
2017-09-06T04:56:27.117Z,18.12
2017-09-06T04:57:35.967Z,18.1
2017-09-06T04:58:44.813Z,18.1
2017-09-06T04:59:53.667Z,18.14
2017-09-06T05:01:02.517Z,18.07
2017-09-06T05:02:11.364Z,18.07
2017-09-06T05:03:20.213Z,18.17
2017-09-06T05:04:29.067Z,18.1
2017-09-06T05:05:37.914Z,18.12
2017-09-06T05:06:46.817Z,18.11
2017-09-06T05:07:55.668Z,18.2
2017-09-06T05:09:04.517Z,18.14
2017-09-06T05:10:13.366Z,18.12
2017-09-06T05:11:22.257Z,18.07
2017-09-06T05:12:31.115Z,18.14
2017-09-06T05:13:39.962Z,18.1
2017-09-06T05:14:48.817Z,18.1
2017-09-06T05:15:57.664Z,18.15
2017-09-06T05:17:06.514Z,18.14
2017-09-06T05:18:15.363Z,18.12
2017-09-06T05:19:24.216Z,18.2
2017-09-06T05:20:33.066Z,18.11
2017-09-06T05:21:41.919Z,18.2
2017-09-06T05:22:50.767Z,18.12
2017-09-06T05:23:59.614Z,18.15
2017-09-06T05:25:08.467Z,18.15
2017-09-06T05:26:17.317Z,18.15
2017-09-06T05:27:26.165Z,18.17
2017-09-06T05:28:35.019Z,18.12
2017-09-06T05:29:43.867Z,18.14
2017-09-06T05:30:52.714Z,18.14
2017-09-06T05:32:01.565Z,18.23
2017-09-06T05:33:10.423Z,18.14
2017-09-06T05:34:19.599Z,18.14
2017-09-06T05:35:28.853Z,18.15
2017-09-06T05:36:37.900Z,18.12
2017-09-06T05:37:46.828Z,18.15
2017-09-06T05:38:55.767Z,18.2
2017-09-06T05:40:04.663Z,18.18
2017-09-06T05:41:13.573Z,18.14
2017-09-06T05:42:22.467Z,18.21
2017-09-06T05:43:31.358Z,18.26
2017-09-06T05:44:40.290Z,18.3
2017-09-06T05:45:49.174Z,18.3
2017-09-06T05:46:58.390Z,18.27
2017-09-06T05:48:07.242Z,18.25
2017-09-06T05:49:16.145Z,18.29
2017-09-06T05:50:24.998Z,18.29
2017-09-06T05:51:33.848Z,18.35
2017-09-06T05:52:42.701Z,18.35
2017-09-06T05:53:51.908Z,18.35
2017-09-06T05:55:00.762Z,18.3
2017-09-06T05:56:09.613Z,18.45
2017-09-06T05:57:18.466Z,18.42
2017-09-06T05:58:27.314Z,18.47
2017-09-06T05:59:36.164Z,18.37
2017-09-06T06:00:45.017Z,18.33
2017-09-06T06:01:53.922Z,18.41
2017-09-06T06:03:02.918Z,18.42
2017-09-06T06:04:11.819Z,18.44
2017-09-06T06:05:20.762Z,18.39
2017-09-06T06:06:29.730Z,18.42
2017-09-06T06:07:39.246Z,18.51
2017-09-06T06:08:48.164Z,18.45
2017-09-06T06:09:57.011Z,18.47
2017-09-06T06:11:05.911Z,18.52
2017-09-06T06:12:14.860Z,18.45
2017-09-06T06:13:24.410Z,18.51
2017-09-06T06:14:33.264Z,18.47
2017-09-06T06:15:42.155Z,18.41
2017-09-06T06:16:51.327Z,18.48
2017-09-06T06:18:00.228Z,18.5
2017-09-06T06:19:09.301Z,18.41
2017-09-06T06:20:18.275Z,18.41
2017-09-06T06:21:27.447Z,18.42
2017-09-06T06:22:36.373Z,18.33
2017-09-06T06:23:45.294Z,18.42
2017-09-06T06:24:54.300Z,18.29
2017-09-06T06:26:03.191Z,18.35
2017-09-06T06:27:12.371Z,18.5
2017-09-06T06:28:21.591Z,18.45
2017-09-06T06:29:30.472Z,18.33
2017-09-06T06:30:39.766Z,18.45
2017-09-06T06:31:48.975Z,18.48
2017-09-06T06:32:57.843Z,18.47
2017-09-06T06:34:06.995Z,18.5
2017-09-06T06:35:15.882Z,18.45
2017-09-06T06:36:24.843Z,18.47
2017-09-06T06:37:33.732Z,18.55
2017-09-06T06:38:42.626Z,18.5
2017-09-06T06:39:51.519Z,18.52
2017-09-06T06:41:00.370Z,18.5
2017-09-06T06:42:09.225Z,18.54
2017-09-06T06:43:18.076Z,18.57
2017-09-06T06:44:26.924Z,18.55
2017-09-06T06:45:35.777Z,18.6
2017-09-06T06:46:44.626Z,18.63
2017-09-06T06:47:53.477Z,18.69
2017-09-06T06:49:02.329Z,18.6
2017-09-06T06:50:11.254Z,18.62
2017-09-06T06:51:20.184Z,18.63
2017-09-06T06:52:29.036Z,18.55
2017-09-06T06:53:38.013Z,18.63
2017-09-06T06:54:46.978Z,18.55
2017-09-06T06:55:56.256Z,18.6
2017-09-06T06:57:05.836Z,18.66
2017-09-06T06:58:14.999Z,18.69
2017-09-06T06:59:23.893Z,18.73
2017-09-06T07:00:32.866Z,18.67
2017-09-06T07:01:41.852Z,18.73
2017-09-06T07:02:50.700Z,18.81
2017-09-06T07:03:59.622Z,18.73
2017-09-06T07:05:08.589Z,18.81
2017-09-06T07:06:17.538Z,18.78
2017-09-06T07:07:26.466Z,18.82
2017-09-06T07:08:35.634Z,18.85
2017-09-06T07:09:44.534Z,18.85
2017-09-06T07:10:53.450Z,18.87
2017-09-06T07:12:02.613Z,18.87
2017-09-06T07:13:11.619Z,18.8
2017-09-06T07:14:20.467Z,18.82
2017-09-06T07:15:29.358Z,18.76
2017-09-06T07:16:38.759Z,18.85
2017-09-06T07:17:47.953Z,18.85
2017-09-06T07:18:56.917Z,18.87
2017-09-06T07:20:06.113Z,18.84
2017-09-06T07:21:15.037Z,18.91
2017-09-06T07:22:24.042Z,18.91
2017-09-06T07:23:33.046Z,18.98
2017-09-06T07:24:41.896Z,18.82
2017-09-06T07:25:50.749Z,18.91
2017-09-06T07:26:59.601Z,18.92
2017-09-06T07:28:08.451Z,18.91
2017-09-06T07:29:17.305Z,18.91
2017-09-06T07:30:26.157Z,18.94
2017-09-06T07:31:35.038Z,18.99
2017-09-06T07:32:44.038Z,18.95
2017-09-06T07:33:54.038Z,18.99
2017-09-06T07:35:03.594Z,19.06
2017-09-06T07:36:12.485Z,19.04
2017-09-06T07:37:21.650Z,19.18
2017-09-06T07:38:30.920Z,19.11
2017-09-06T07:39:39.769Z,19.19
2017-09-06T07:40:48.622Z,19.13
2017-09-06T07:41:57.792Z,19.13
2017-09-06T07:43:06.644Z,19.18
2017-09-06T07:44:15.500Z,19.16
2017-09-06T07:45:24.350Z,19.14
2017-09-06T07:46:33.200Z,19.26
2017-09-06T07:47:42.054Z,19.14
2017-09-06T07:48:50.902Z,19.26
2017-09-06T07:49:59.754Z,19.28
2017-09-06T07:51:08.932Z,19.26
2017-09-06T07:52:17.782Z,19.25
2017-09-06T07:53:26.631Z,19.23
2017-09-06T07:54:35.483Z,19.29
2017-09-06T07:55:44.337Z,19.26
2017-09-06T07:56:53.189Z,19.16
2017-09-06T07:58:02.045Z,19.28
2017-09-06T07:59:10.894Z,19.26
2017-09-06T08:00:19.744Z,19.23
2017-09-06T08:01:28.597Z,19.26
2017-09-06T08:02:37.449Z,19.21
2017-09-06T08:03:46.626Z,19.33
2017-09-06T08:04:55.653Z,19.36
2017-09-06T08:06:04.933Z,19.39
2017-09-06T08:07:14.238Z,19.4
2017-09-06T08:08:23.443Z,19.43
2017-09-06T08:09:32.451Z,19.51
2017-09-06T08:10:41.336Z,19.5
2017-09-06T08:11:50.188Z,19.56
2017-09-06T08:12:59.037Z,19.62
2017-09-06T08:14:08.213Z,19.62
2017-09-06T08:15:17.065Z,19.59
2017-09-06T08:16:25.918Z,19.59
2017-09-06T08:17:34.766Z,19.66
2017-09-06T08:18:43.619Z,19.73
2017-09-06T08:19:52.474Z,19.69
2017-09-06T08:21:01.324Z,19.71
2017-09-06T08:22:10.178Z,19.65
2017-09-06T08:23:19.033Z,19.68
2017-09-06T08:24:27.882Z,19.63
2017-09-06T08:25:36.736Z,19.61
2017-09-06T08:26:45.585Z,19.58
2017-09-06T08:27:54.436Z,19.61
2017-09-06T08:29:03.290Z,19.51
2017-09-06T08:30:12.469Z,19.41
2017-09-06T08:31:21.320Z,19.41
2017-09-06T08:32:30.173Z,19.31
2017-09-06T08:33:39.020Z,19.16
2017-09-06T08:34:47.871Z,19.25
2017-09-06T08:35:56.722Z,19.02
2017-09-06T08:37:05.574Z,18.98
2017-09-06T08:38:14.426Z,18.95
2017-09-06T08:39:23.277Z,18.91
2017-09-06T08:40:32.127Z,18.94
2017-09-06T08:41:40.977Z,18.92
2017-09-06T08:42:49.830Z,18.87
2017-09-06T08:43:58.684Z,18.91
2017-09-06T08:45:07.535Z,18.81
2017-09-06T08:46:16.388Z,18.81
2017-09-06T08:47:25.236Z,18.82
2017-09-06T08:48:34.084Z,18.81
2017-09-06T08:49:42.937Z,18.87
2017-09-06T08:50:51.787Z,18.84
2017-09-06T08:52:00.638Z,18.78
2017-09-06T08:53:09.486Z,18.78
2017-09-06T08:54:18.338Z,18.8
2017-09-06T08:55:27.188Z,18.73
2017-09-06T08:56:36.039Z,18.8
2017-09-06T08:57:44.894Z,18.7
2017-09-06T08:58:53.746Z,18.75
2017-09-06T09:00:02.595Z,18.7
2017-09-06T09:01:11.448Z,18.67
2017-09-06T09:02:20.295Z,18.69
2017-09-06T09:03:29.147Z,18.66
2017-09-06T09:04:37.997Z,18.54
2017-09-06T09:05:46.851Z,18.57
2017-09-06T09:06:55.706Z,18.66
2017-09-06T09:08:04.556Z,18.6
2017-09-06T09:09:13.410Z,18.66
2017-09-06T09:10:22.257Z,18.65
2017-09-06T09:11:31.102Z,18.57
2017-09-06T09:12:39.958Z,18.54
2017-09-06T09:13:48.808Z,18.47
2017-09-06T09:14:57.658Z,18.47
2017-09-06T09:16:06.512Z,18.44
2017-09-06T09:17:15.357Z,18.35
2017-09-06T09:18:24.207Z,18.35
2017-09-06T09:19:33.057Z,18.35
2017-09-06T09:20:41.911Z,18.23
2017-09-06T09:21:50.759Z,18.23
2017-09-06T09:22:59.611Z,18.14
2017-09-06T09:24:08.459Z,18.12
2017-09-06T09:25:17.309Z,18.11
2017-09-06T09:26:26.163Z,18.12
2017-09-06T09:27:35.015Z,18.1
2017-09-06T09:28:43.862Z,18.17
2017-09-06T09:29:52.717Z,18.15
2017-09-06T09:31:01.568Z,18.17
2017-09-06T09:32:10.417Z,18.21
2017-09-06T09:33:19.267Z,18.27
2017-09-06T09:34:28.120Z,18.23
2017-09-06T09:35:36.968Z,18.3
2017-09-06T09:36:45.814Z,18.25
2017-09-06T09:37:54.666Z,18.23
2017-09-06T09:39:03.842Z,18.39
2017-09-06T09:40:12.695Z,18.36
2017-09-06T09:41:21.547Z,18.33
2017-09-06T09:42:30.393Z,18.37
2017-09-06T09:43:39.242Z,18.39
2017-09-06T09:44:48.095Z,18.47
2017-09-06T09:45:56.942Z,18.42
2017-09-06T09:47:05.795Z,18.44
2017-09-06T09:48:14.645Z,18.42
2017-09-06T09:49:23.495Z,18.36
2017-09-06T09:50:32.340Z,18.44
2017-09-06T09:51:41.191Z,18.5
2017-09-06T09:52:50.043Z,18.58
2017-09-06T09:53:58.896Z,18.42
2017-09-06T09:55:07.747Z,18.5
2017-09-06T09:56:16.594Z,18.47
2017-09-06T09:57:25.446Z,18.42
2017-09-06T09:58:34.298Z,18.52
2017-09-06T09:59:43.148Z,18.52
2017-09-06T10:00:52.001Z,18.63
2017-09-06T10:02:00.852Z,18.66
2017-09-06T10:03:09.701Z,18.62
2017-09-06T10:04:18.550Z,18.65
2017-09-06T10:05:27.401Z,18.75
2017-09-06T10:06:36.252Z,18.75
2017-09-06T10:07:45.102Z,18.78
2017-09-06T10:08:53.958Z,18.82
2017-09-06T10:10:02.809Z,18.81
2017-09-06T10:11:11.657Z,18.85
2017-09-06T10:12:20.509Z,18.91
2017-09-06T10:13:29.364Z,18.94
2017-09-06T10:14:38.223Z,19
2017-09-06T10:15:47.156Z,18.99
2017-09-06T10:16:56.050Z,19.08
2017-09-06T10:18:04.902Z,19.19
2017-09-06T10:19:13.833Z,19.19
2017-09-06T10:20:23.679Z,19.16
2017-09-06T10:21:32.967Z,19.18
2017-09-06T10:22:41.821Z,19.23
2017-09-06T10:23:50.670Z,19.22
2017-09-06T10:24:59.520Z,19.19
2017-09-06T10:26:08.374Z,19.23
2017-09-06T10:27:17.239Z,19.28
2017-09-06T10:28:26.088Z,19.25
2017-09-06T10:29:34.945Z,19.29
2017-09-06T10:30:43.799Z,19.21
2017-09-06T10:31:52.660Z,19.28
2017-09-06T10:33:01.514Z,19.29
2017-09-06T10:34:10.365Z,19.31
2017-09-06T10:35:19.214Z,19.29
2017-09-06T10:36:28.072Z,19.39
2017-09-06T10:37:36.918Z,19.4
2017-09-06T10:38:45.771Z,19.48
2017-09-06T10:39:54.624Z,19.55
2017-09-06T10:41:03.474Z,19.5
2017-09-06T10:42:12.328Z,19.43
2017-09-06T10:43:21.176Z,19.37
2017-09-06T10:44:30.030Z,19.37
2017-09-06T10:45:38.879Z,19.41
2017-09-06T10:46:47.732Z,19.41
2017-09-06T10:47:56.585Z,19.33
2017-09-06T10:49:05.433Z,19.4
2017-09-06T10:50:14.320Z,19.41
2017-09-06T10:51:23.174Z,19.41
2017-09-06T10:52:32.024Z,19.31
2017-09-06T10:53:41.229Z,19.32
2017-09-06T10:54:50.114Z,19.32
2017-09-06T10:55:59.360Z,19.37
2017-09-06T10:57:08.340Z,19.36
2017-09-06T10:58:17.194Z,19.32
2017-09-06T10:59:26.042Z,19.36
2017-09-06T11:00:34.895Z,19.32
2017-09-06T11:01:43.747Z,19.37
2017-09-06T11:02:52.597Z,19.32
2017-09-06T11:04:01.453Z,19.33
2017-09-06T11:05:10.303Z,19.26
2017-09-06T11:06:19.156Z,19.37
2017-09-06T11:07:28.007Z,19.37
2017-09-06T11:08:36.859Z,19.36
2017-09-06T11:09:45.713Z,19.33
2017-09-06T11:10:54.566Z,19.25
2017-09-06T11:12:03.417Z,19.36
2017-09-06T11:13:12.273Z,19.28
2017-09-06T11:14:21.121Z,19.31
2017-09-06T11:15:29.969Z,19.31
2017-09-06T11:16:38.821Z,19.29
2017-09-06T11:17:47.676Z,19.37
2017-09-06T11:18:56.531Z,19.26
2017-09-06T11:20:05.704Z,19.33
2017-09-06T11:21:14.556Z,19.21
2017-09-06T11:22:23.411Z,19.19
2017-09-06T11:23:32.281Z,19.32
2017-09-06T11:24:41.242Z,19.28
2017-09-06T11:25:50.093Z,19.23
2017-09-06T11:26:59.066Z,19.19
2017-09-06T11:28:07.921Z,19.25
2017-09-06T11:29:16.783Z,19.23
2017-09-06T11:30:25.643Z,19.28
2017-09-06T11:31:34.543Z,19.19
2017-09-06T11:32:43.393Z,19.26
2017-09-06T11:33:52.243Z,19.18
2017-09-06T11:35:01.097Z,19.26
2017-09-06T11:36:09.950Z,19.21
2017-09-06T11:37:18.805Z,19.33
2017-09-06T11:38:27.675Z,19.28
2017-09-06T11:39:36.559Z,19.33
2017-09-06T11:40:45.407Z,19.37
2017-09-06T11:41:54.389Z,19.28
2017-09-06T11:43:03.352Z,19.4
2017-09-06T11:44:12.272Z,19.36
2017-09-06T11:45:21.127Z,19.39
2017-09-06T11:46:29.976Z,19.39
2017-09-06T11:47:38.830Z,19.5
2017-09-06T11:48:48.010Z,19.43
2017-09-06T11:49:57.188Z,19.54
2017-09-06T11:51:06.039Z,19.54
2017-09-06T11:52:14.890Z,19.56
2017-09-06T11:53:23.742Z,19.62
2017-09-06T11:54:32.591Z,19.62
2017-09-06T11:55:41.443Z,19.68
2017-09-06T11:56:50.297Z,19.69
2017-09-06T11:57:59.148Z,19.58
2017-09-06T11:59:07.999Z,19.65
2017-09-06T12:00:17.176Z,19.61
2017-09-06T12:01:26.026Z,19.65
2017-09-06T12:02:34.881Z,19.61
2017-09-06T12:03:43.733Z,19.61
2017-09-06T12:04:52.582Z,19.58
2017-09-06T12:06:01.435Z,19.58
2017-09-06T12:07:10.284Z,19.65
2017-09-06T12:08:19.134Z,19.61
2017-09-06T12:09:27.986Z,19.51
2017-09-06T12:10:36.838Z,19.5
2017-09-06T12:11:45.694Z,19.44
2017-09-06T12:12:54.545Z,19.62
2017-09-06T12:14:03.394Z,19.61
2017-09-06T12:15:12.243Z,19.61
2017-09-06T12:16:21.093Z,19.62
2017-09-06T12:17:29.948Z,19.65
2017-09-06T12:18:38.799Z,19.65
2017-09-06T12:19:47.651Z,19.65
2017-09-06T12:20:56.502Z,19.65
2017-09-06T12:22:05.354Z,19.74
2017-09-06T12:23:14.208Z,19.78
2017-09-06T12:24:23.061Z,19.71
2017-09-06T12:25:31.910Z,19.76
2017-09-06T12:26:40.763Z,19.77
2017-09-06T12:27:49.612Z,19.81
2017-09-06T12:28:58.463Z,19.84
2017-09-06T12:30:07.316Z,19.92
2017-09-06T12:31:16.168Z,19.91
2017-09-06T12:32:25.019Z,19.87
2017-09-06T12:33:33.869Z,19.91
2017-09-06T12:34:42.723Z,19.8
2017-09-06T12:35:51.576Z,19.77
2017-09-06T12:37:00.430Z,19.69
2017-09-06T12:38:09.284Z,19.8
2017-09-06T12:39:18.131Z,19.86
2017-09-06T12:40:26.980Z,19.91
2017-09-06T12:41:35.833Z,19.87
2017-09-06T12:42:44.685Z,19.98
2017-09-06T12:43:53.540Z,19.98
2017-09-06T12:45:02.398Z,20.1
2017-09-06T12:46:11.249Z,20.05
2017-09-06T12:47:20.099Z,20.06
2017-09-06T12:48:28.955Z,19.99
2017-09-06T12:49:37.807Z,19.95
2017-09-06T12:50:46.661Z,19.91
2017-09-06T12:51:55.515Z,19.87
2017-09-06T12:53:04.365Z,19.87
2017-09-06T12:54:13.217Z,19.96
2017-09-06T12:55:22.069Z,20.05
2017-09-06T12:56:30.924Z,20.33
2017-09-06T12:57:39.776Z,20.57
2017-09-06T12:58:48.631Z,20.66
2017-09-06T12:59:57.480Z,20.67
2017-09-06T13:01:06.330Z,20.7
2017-09-06T13:02:15.182Z,20.67
2017-09-06T13:03:24.035Z,20.54
2017-09-06T13:04:32.885Z,20.57
2017-09-06T13:05:41.734Z,20.58
2017-09-06T13:06:50.586Z,20.48
2017-09-06T13:07:59.436Z,20.38
2017-09-06T13:09:08.287Z,20.42
2017-09-06T13:10:17.137Z,20.35
2017-09-06T13:11:25.990Z,20.41
2017-09-06T13:12:34.842Z,20.39
2017-09-06T13:13:43.694Z,20.31
2017-09-06T13:14:52.550Z,20.36
2017-09-06T13:16:01.400Z,20.28
2017-09-06T13:17:10.248Z,20.23
2017-09-06T13:18:19.102Z,20.17
2017-09-06T13:19:27.952Z,20.24
2017-09-06T13:20:36.806Z,20.32
2017-09-06T13:21:45.660Z,20.48
2017-09-06T13:22:54.511Z,20.5
2017-09-06T13:24:03.364Z,20.48
2017-09-06T13:25:12.216Z,20.47
2017-09-06T13:26:21.065Z,20.47
2017-09-06T13:27:29.920Z,20.32
2017-09-06T13:28:38.777Z,20.39
2017-09-06T13:29:47.626Z,20.38
2017-09-06T13:30:56.478Z,20.42
2017-09-06T13:32:05.331Z,20.39
2017-09-06T13:33:14.182Z,20.38
2017-09-06T13:34:23.037Z,20.35
2017-09-06T13:35:31.891Z,20.33
2017-09-06T13:36:40.743Z,20.36
2017-09-06T13:37:49.593Z,20.31
2017-09-06T13:38:58.448Z,20.23
2017-09-06T13:40:07.632Z,20.2
2017-09-06T13:41:16.822Z,20.21
2017-09-06T13:42:25.676Z,20.2
2017-09-06T13:43:34.528Z,20.14
2017-09-06T13:44:43.378Z,20.1
2017-09-06T13:45:52.229Z,20.18
2017-09-06T13:47:01.085Z,20.08
2017-09-06T13:48:09.939Z,20.11
2017-09-06T13:49:18.793Z,20.13
2017-09-06T13:50:27.646Z,19.99
2017-09-06T13:51:36.496Z,20.03
2017-09-06T13:52:45.348Z,19.96
2017-09-06T13:53:54.198Z,20.03
2017-09-06T13:55:03.052Z,20.1
2017-09-06T13:56:11.901Z,20.11
2017-09-06T13:57:20.753Z,20.06
2017-09-06T13:58:29.604Z,19.95
2017-09-06T13:59:38.457Z,19.74
2017-09-06T14:00:47.310Z,19.73
2017-09-06T14:01:56.163Z,19.44
2017-09-06T14:03:05.016Z,19.11
2017-09-06T14:04:13.869Z,18.91
2017-09-06T14:05:22.713Z,18.78
2017-09-06T14:06:31.566Z,18.67
2017-09-06T14:07:40.420Z,18.67
2017-09-06T14:08:49.271Z,18.6
2017-09-06T14:09:58.122Z,18.58
2017-09-06T14:11:06.972Z,18.55
2017-09-06T14:12:15.823Z,18.54
2017-09-06T14:13:24.678Z,18.63
2017-09-06T14:14:33.531Z,18.67
2017-09-06T14:15:42.379Z,18.63
2017-09-06T14:16:51.231Z,18.62
2017-09-06T14:18:00.081Z,18.63
2017-09-06T14:19:08.932Z,18.62
2017-09-06T14:20:17.786Z,18.62
2017-09-06T14:21:26.638Z,18.52
2017-09-06T14:22:35.487Z,18.69
2017-09-06T14:23:44.335Z,18.73
2017-09-06T14:24:53.185Z,18.73
2017-09-06T14:26:02.034Z,18.81
2017-09-06T14:27:10.886Z,18.72
2017-09-06T14:28:19.738Z,18.82
2017-09-06T14:29:28.585Z,18.85
2017-09-06T14:30:37.433Z,18.81
2017-09-06T14:31:46.284Z,18.88
2017-09-06T14:32:55.131Z,18.84
2017-09-06T14:34:03.982Z,18.91
2017-09-06T14:35:12.832Z,18.85
2017-09-06T14:36:21.683Z,18.85
2017-09-06T14:37:30.529Z,18.91
2017-09-06T14:38:39.386Z,18.94
2017-09-06T14:39:48.231Z,18.95
2017-09-06T14:40:57.084Z,18.94
2017-09-06T14:42:05.937Z,19
2017-09-06T14:43:14.784Z,18.95
2017-09-06T14:44:23.966Z,19.1
2017-09-06T14:45:32.815Z,19.04
2017-09-06T14:46:41.664Z,19
2017-09-06T14:47:50.519Z,19
2017-09-06T14:48:59.368Z,19.06
2017-09-06T14:50:08.219Z,19.06
2017-09-06T14:51:17.068Z,19.13